createdAt,value
2018-05-23T00:00:57.741Z,1012.39
2018-05-23T00:01:57.825Z,1012.38
2018-05-23T00:02:58.247Z,1012.41
2018-05-23T00:03:58.697Z,1012.40
2018-05-23T00:04:58.329Z,1012.39
2018-05-23T00:05:58.065Z,1012.45
2018-05-23T00:06:58.235Z,1012.45
2018-05-23T00:07:58.197Z,1012.43
2018-05-23T00:08:58.525Z,1012.46
2018-05-23T00:09:58.329Z,1012.44
2018-05-23T00:10:58.393Z,1012.44
2018-05-23T00:11:58.465Z,1012.44
2018-05-23T00:12:58.534Z,1012.44
2018-05-23T00:13:58.593Z,1012.43
2018-05-23T00:14:58.657Z,1012.42
2018-05-23T00:15:59.454Z,1012.45
2018-05-23T00:16:58.797Z,1012.43
2018-05-23T00:17:59.450Z,1012.46
2018-05-23T00:18:59.351Z,1012.43
2018-05-23T00:19:59.070Z,1012.40
2018-05-23T00:20:59.082Z,1012.43
2018-05-23T00:21:59.458Z,1012.45
2018-05-23T00:22:59.187Z,1012.42
2018-05-23T00:23:59.250Z,1012.41
2018-05-23T00:24:59.317Z,1012.41
2018-05-23T00:25:59.502Z,1012.42
2018-05-23T00:26:59.450Z,1012.41
2018-05-23T00:27:59.734Z,1012.41
2018-05-23T00:28:59.598Z,1012.40
2018-05-23T00:29:59.646Z,1012.42
2018-05-23T00:30:59.710Z,1012.42
2018-05-23T00:31:59.778Z,1012.37
2018-05-23T00:32:59.851Z,1012.41
2018-05-23T00:34:00.023Z,1012.38
2018-05-23T00:35:00.035Z,1012.37
2018-05-23T00:36:00.047Z,1012.36
2018-05-23T00:37:00.126Z,1012.39
2018-05-23T00:38:00.194Z,1012.36
2018-05-23T00:39:00.271Z,1012.35
2018-05-23T00:40:00.330Z,1012.36
2018-05-23T00:41:00.375Z,1012.33
2018-05-23T00:42:00.435Z,1012.33
2018-05-23T00:43:00.588Z,1012.30
2018-05-23T00:44:00.575Z,1012.33
2018-05-23T00:45:00.635Z,1012.33
2018-05-23T00:46:00.699Z,1012.31
2018-05-23T00:47:00.780Z,1012.28
2018-05-23T00:48:00.838Z,1012.30
2018-05-23T00:49:01.439Z,1012.32
2018-05-23T00:50:00.967Z,1012.31
2018-05-23T00:51:01.712Z,1012.28
2018-05-23T00:52:01.095Z,1012.31
2018-05-23T00:53:01.184Z,1012.33
2018-05-23T00:54:01.932Z,1012.34
2018-05-23T00:55:01.296Z,1012.35
2018-05-23T00:56:01.755Z,1012.35
2018-05-23T00:57:01.426Z,1012.32
2018-05-23T00:58:02.020Z,1012.31
2018-05-23T00:59:01.561Z,1012.30
2018-05-23T01:00:01.924Z,1012.28
2018-05-23T01:01:01.826Z,1012.27
2018-05-23T01:02:01.748Z,1012.28
2018-05-23T01:03:01.832Z,1012.25
2018-05-23T01:04:02.032Z,1012.30
2018-05-23T01:05:02.080Z,1012.29
2018-05-23T01:06:02.079Z,1012.27
2018-05-23T01:07:02.104Z,1012.30
2018-05-23T01:08:02.304Z,1012.34
2018-05-23T01:09:02.744Z,1012.29
2018-05-23T01:10:02.280Z,1012.28
2018-05-23T01:11:02.345Z,1012.26
2018-05-23T01:12:02.461Z,1012.30
2018-05-23T01:13:02.481Z,1012.28
2018-05-23T01:14:02.549Z,1012.29
2018-05-23T01:15:02.645Z,1012.33
2018-05-23T01:16:02.673Z,1012.31
2018-05-23T01:17:02.777Z,1012.30
2018-05-23T01:18:02.808Z,1012.33
2018-05-23T01:19:02.920Z,1012.34
2018-05-23T01:20:02.942Z,1012.34
2018-05-23T01:21:03.001Z,1012.33
2018-05-23T01:22:03.069Z,1012.29
2018-05-23T01:23:03.148Z,1012.32
2018-05-23T01:24:03.202Z,1012.28
2018-05-23T01:25:03.264Z,1012.29
2018-05-23T01:26:03.329Z,1012.25
2018-05-23T01:27:03.393Z,1012.27
2018-05-23T01:28:03.478Z,1012.27
2018-05-23T01:29:03.621Z,1012.26
2018-05-23T01:30:03.603Z,1012.29
2018-05-23T01:31:03.657Z,1012.31
2018-05-23T01:32:03.725Z,1012.32
2018-05-23T01:33:03.878Z,1012.33
2018-05-23T01:34:03.861Z,1012.40
2018-05-23T01:35:03.925Z,1012.36
2018-05-23T01:36:03.989Z,1012.41
2018-05-23T01:37:04.057Z,1012.43
2018-05-23T01:38:04.245Z,1012.43
2018-05-23T01:39:04.198Z,1012.42
2018-05-23T01:40:04.333Z,1012.39
2018-05-23T01:41:04.334Z,1012.37
2018-05-23T01:42:04.401Z,1012.40
2018-05-23T01:43:04.453Z,1012.37
2018-05-23T01:44:04.521Z,1012.35
2018-05-23T01:45:04.574Z,1012.33
2018-05-23T01:46:04.654Z,1012.34
2018-05-23T01:47:04.706Z,1012.35
2018-05-23T01:48:04.790Z,1012.39
2018-05-23T01:49:04.850Z,1012.44
2018-05-23T01:50:05.310Z,1012.39
2018-05-23T01:51:04.970Z,1012.44
2018-05-23T01:52:05.038Z,1012.43
2018-05-23T01:53:05.102Z,1012.41
2018-05-23T01:54:05.362Z,1012.43
2018-05-23T01:55:05.602Z,1012.41
2018-05-23T01:56:05.322Z,1012.43
2018-05-23T01:57:05.366Z,1012.43
2018-05-23T01:58:05.438Z,1012.45
2018-05-23T01:59:05.510Z,1012.50
2018-05-23T02:00:05.579Z,1012.48
2018-05-23T02:01:05.632Z,1012.49
2018-05-23T02:02:05.773Z,1012.49
2018-05-23T02:03:05.831Z,1012.49
2018-05-23T02:04:05.843Z,1012.49
2018-05-23T02:05:05.934Z,1012.49
2018-05-23T02:06:05.979Z,1012.43
2018-05-23T02:07:06.059Z,1012.43
2018-05-23T02:08:06.091Z,1012.44
2018-05-23T02:09:06.167Z,1012.44
2018-05-23T02:10:06.275Z,1012.44
2018-05-23T02:11:06.284Z,1012.43
2018-05-23T02:12:06.371Z,1012.46
2018-05-23T02:13:06.439Z,1012.46
2018-05-23T02:14:06.506Z,1012.48
2018-05-23T02:15:06.559Z,1012.45
2018-05-23T02:16:06.615Z,1012.43
2018-05-23T02:17:06.675Z,1012.47
2018-05-23T02:18:06.750Z,1012.47
2018-05-23T02:19:06.960Z,1012.43
2018-05-23T02:20:06.895Z,1012.50
2018-05-23T02:21:06.963Z,1012.50
2018-05-23T02:22:07.015Z,1012.48
2018-05-23T02:23:07.075Z,1012.47
2018-05-23T02:24:07.216Z,1012.51
2018-05-23T02:25:07.203Z,1012.46
2018-05-23T02:26:07.295Z,1012.48
2018-05-23T02:27:07.351Z,1012.47
2018-05-23T02:28:07.403Z,1012.49
2018-05-23T02:29:07.485Z,1012.46
2018-05-23T02:30:07.552Z,1012.48
2018-05-23T02:31:07.600Z,1012.47
2018-05-23T02:32:07.670Z,1012.50
2018-05-23T02:33:07.733Z,1012.54
2018-05-23T02:34:07.807Z,1012.52
2018-05-23T02:35:07.886Z,1012.55
2018-05-23T02:36:07.955Z,1012.46
2018-05-23T02:37:07.995Z,1012.51
2018-05-23T02:38:08.100Z,1012.54
2018-05-23T02:39:08.208Z,1012.53
2018-05-23T02:40:08.199Z,1012.53
2018-05-23T02:41:16.783Z,1012.53
2018-05-23T02:42:08.320Z,1012.55
2018-05-23T02:43:08.476Z,1012.52
2018-05-23T02:44:08.488Z,1012.54
2018-05-23T02:45:08.524Z,1012.54
2018-05-23T02:46:08.585Z,1012.55
2018-05-23T02:47:09.368Z,1012.57
2018-05-23T02:48:08.715Z,1012.52
2018-05-23T02:49:08.872Z,1012.50
2018-05-23T02:50:08.859Z,1012.57
2018-05-23T02:51:08.911Z,1012.53
2018-05-23T02:52:08.980Z,1012.51
2018-05-23T02:53:09.047Z,1012.53
2018-05-23T02:54:09.445Z,1012.47
2018-05-23T02:55:09.176Z,1012.50
2018-05-23T02:56:09.392Z,1012.49
2018-05-23T02:57:09.313Z,1012.46
2018-05-23T02:58:09.372Z,1012.46
2018-05-23T02:59:09.441Z,1012.49
2018-05-23T03:00:09.748Z,1012.49
2018-05-23T03:01:09.569Z,1012.49
2018-05-23T03:02:09.633Z,1012.48
2018-05-23T03:03:09.701Z,1012.47
2018-05-23T03:04:09.765Z,1012.53
2018-05-23T03:05:10.488Z,1012.54
2018-05-23T03:06:09.900Z,1012.53
2018-05-23T03:07:09.968Z,1012.53
2018-05-23T03:08:10.029Z,1012.54
2018-05-23T03:09:18.316Z,1012.52
2018-05-23T03:10:10.312Z,1012.54
2018-05-23T03:11:10.225Z,1012.54
2018-05-23T03:12:13.881Z,1012.56
2018-05-23T03:13:11.411Z,1012.55
2018-05-23T03:14:10.421Z,1012.62
2018-05-23T03:15:10.649Z,1012.56
2018-05-23T03:16:10.569Z,1012.59
2018-05-23T03:17:10.616Z,1012.63
2018-05-23T03:18:10.689Z,1012.58
2018-05-23T03:19:18.285Z,1012.60
2018-05-23T03:20:10.825Z,1012.61
2018-05-23T03:21:10.897Z,1012.60
2018-05-23T03:22:11.024Z,1012.63
2018-05-23T03:23:11.014Z,1012.64
2018-05-23T03:24:11.142Z,1012.60
2018-05-23T03:25:11.289Z,1012.65
2018-05-23T03:26:11.206Z,1012.63
2018-05-23T03:27:11.277Z,1012.63
2018-05-23T03:28:11.342Z,1012.66
2018-05-23T03:29:12.550Z,1012.67
2018-05-23T03:30:11.478Z,1012.72
2018-05-23T03:31:11.890Z,1012.71
2018-05-23T03:32:11.594Z,1012.71
2018-05-23T03:33:11.670Z,1012.76
2018-05-23T03:34:11.730Z,1012.78
2018-05-23T03:35:11.814Z,1012.76
2018-05-23T03:36:11.866Z,1012.80
2018-05-23T03:37:11.927Z,1012.80
2018-05-23T03:38:11.990Z,1012.80
2018-05-23T03:39:12.728Z,1012.80
2018-05-23T03:40:12.123Z,1012.78
2018-05-23T03:41:12.210Z,1012.77
2018-05-23T03:42:12.263Z,1012.78
2018-05-23T03:43:12.842Z,1012.72
2018-05-23T03:44:12.394Z,1012.73
2018-05-23T03:45:12.466Z,1012.78
2018-05-23T03:46:12.529Z,1012.81
2018-05-23T03:47:12.591Z,1012.79
2018-05-23T03:48:12.647Z,1012.81
2018-05-23T03:49:14.107Z,1012.81
2018-05-23T03:50:12.779Z,1012.82
2018-05-23T03:51:12.854Z,1012.83
2018-05-23T03:52:13.847Z,1012.80
2018-05-23T03:53:12.979Z,1012.82
2018-05-23T03:54:13.504Z,1012.83
2018-05-23T03:55:13.266Z,1012.85
2018-05-23T03:56:13.171Z,1012.85
2018-05-23T03:57:13.276Z,1012.85
2018-05-23T03:58:13.307Z,1012.84
2018-05-23T03:59:13.367Z,1012.84
2018-05-23T04:00:13.435Z,1012.85
2018-05-23T04:01:13.507Z,1012.85
2018-05-23T04:02:13.595Z,1012.84
2018-05-23T04:03:14.400Z,1012.86
2018-05-23T04:04:13.696Z,1012.85
2018-05-23T04:05:13.759Z,1012.89
2018-05-23T04:06:13.827Z,1012.89
2018-05-23T04:07:14.348Z,1012.86
2018-05-23T04:08:13.967Z,1012.90
2018-05-23T04:09:14.399Z,1012.90
2018-05-23T04:10:14.094Z,1012.87
2018-05-23T04:11:14.240Z,1012.90
2018-05-23T04:12:14.444Z,1012.88
2018-05-23T04:13:14.283Z,1012.91
2018-05-23T04:14:14.392Z,1012.93
2018-05-23T04:15:14.518Z,1012.91
2018-05-23T04:16:14.480Z,1012.97
2018-05-23T04:17:14.552Z,1012.96
2018-05-23T04:18:14.620Z,1012.98
2018-05-23T04:19:14.675Z,1013.00
2018-05-23T04:20:14.740Z,1012.97
2018-05-23T04:21:15.092Z,1012.98
2018-05-23T04:22:14.887Z,1013.01
2018-05-23T04:23:14.952Z,1013.01
2018-05-23T04:24:15.012Z,1013.08
2018-05-23T04:25:15.074Z,1013.06
2018-05-23T04:26:15.132Z,1013.05
2018-05-23T04:27:15.228Z,1013.08
2018-05-23T04:28:15.268Z,1013.09
2018-05-23T04:29:15.336Z,1013.10
2018-05-23T04:30:15.400Z,1013.08
2018-05-23T04:31:15.469Z,1013.09
2018-05-23T04:32:15.548Z,1013.07
2018-05-23T04:33:15.624Z,1013.07
2018-05-23T04:34:16.593Z,1013.11
2018-05-23T04:35:15.728Z,1013.12
2018-05-23T04:36:15.797Z,1013.11
2018-05-23T04:37:15.861Z,1013.13
2018-05-23T04:38:15.933Z,1013.16
2018-05-23T04:39:16.555Z,1013.16
2018-05-23T04:40:16.057Z,1013.18
2018-05-23T04:41:16.125Z,1013.14
2018-05-23T04:42:16.217Z,1013.13
2018-05-23T04:43:16.258Z,1013.18
2018-05-23T04:44:16.322Z,1013.16
2018-05-23T04:45:16.385Z,1013.18
2018-05-23T04:46:17.273Z,1013.19
2018-05-23T04:47:16.529Z,1013.24
2018-05-23T04:48:16.973Z,1013.24
2018-05-23T04:49:16.641Z,1013.28
2018-05-23T04:50:17.241Z,1013.29
2018-05-23T04:51:16.782Z,1013.30
2018-05-23T04:52:16.900Z,1013.30
2018-05-23T04:53:16.914Z,1013.31
2018-05-23T04:54:17.742Z,1013.36
2018-05-23T04:55:17.048Z,1013.39
2018-05-23T04:56:17.470Z,1013.38
2018-05-23T04:57:17.170Z,1013.42
2018-05-23T04:58:17.714Z,1013.40
2018-05-23T04:59:17.306Z,1013.44
2018-05-23T05:00:17.370Z,1013.49
2018-05-23T05:01:17.434Z,1013.45
2018-05-23T05:02:17.502Z,1013.52
2018-05-23T05:03:17.587Z,1013.54
2018-05-23T05:04:17.638Z,1013.56
2018-05-23T05:05:17.690Z,1013.55
2018-05-23T05:06:17.767Z,1013.56
2018-05-23T05:07:17.829Z,1013.58
2018-05-23T05:08:17.902Z,1013.61
2018-05-23T05:09:17.971Z,1013.64
2018-05-23T05:10:18.023Z,1013.63
2018-05-23T05:11:18.091Z,1013.64
2018-05-23T05:12:18.615Z,1013.67
2018-05-23T05:13:18.242Z,1013.69
2018-05-23T05:14:18.295Z,1013.70
2018-05-23T05:15:18.355Z,1013.68
2018-05-23T05:16:19.227Z,1013.64
2018-05-23T05:17:18.483Z,1013.65
2018-05-23T05:18:18.563Z,1013.67
2018-05-23T05:19:19.375Z,1013.69
2018-05-23T05:20:18.679Z,1013.68
2018-05-23T05:21:18.819Z,1013.68
2018-05-23T05:22:18.815Z,1013.67
2018-05-23T05:23:18.927Z,1013.70
2018-05-23T05:24:18.951Z,1013.67
2018-05-23T05:25:19.147Z,1013.66
2018-05-23T05:26:19.080Z,1013.72
2018-05-23T05:27:19.147Z,1013.70
2018-05-23T05:28:19.227Z,1013.77
2018-05-23T05:29:19.383Z,1013.74
2018-05-23T05:30:19.336Z,1013.76
2018-05-23T05:31:19.415Z,1013.78
2018-05-23T05:32:19.505Z,1013.82
2018-05-23T05:33:19.540Z,1013.79
2018-05-23T05:34:19.632Z,1013.84
2018-05-23T05:35:19.676Z,1013.90
2018-05-23T05:36:19.788Z,1013.90
2018-05-23T05:37:19.863Z,1013.89
2018-05-23T05:38:19.868Z,1013.90
2018-05-23T05:39:19.944Z,1013.93
2018-05-23T05:40:20.009Z,1013.94
2018-05-23T05:41:20.066Z,1013.99
2018-05-23T05:42:20.140Z,1014.00
2018-05-23T05:43:20.264Z,1014.04
2018-05-23T05:44:20.292Z,1014.00
2018-05-23T05:45:20.329Z,1014.07
2018-05-23T05:46:20.404Z,1014.10
2018-05-23T05:47:20.464Z,1014.13
2018-05-23T05:48:20.528Z,1014.17
2018-05-23T05:49:20.600Z,1014.20
2018-05-23T05:50:20.668Z,1014.17
2018-05-23T05:51:20.760Z,1014.19
2018-05-23T05:52:20.792Z,1014.17
2018-05-23T05:53:20.856Z,1014.25
2018-05-23T05:54:20.928Z,1014.20
2018-05-23T05:55:20.997Z,1014.22
2018-05-23T05:56:21.108Z,1014.22
2018-05-23T05:57:21.124Z,1014.24
2018-05-23T05:58:21.192Z,1014.23
2018-05-23T05:59:21.364Z,1014.31
2018-05-23T06:00:21.320Z,1014.30
2018-05-23T06:01:21.384Z,1014.36
2018-05-23T06:02:21.452Z,1014.37
2018-05-23T06:03:21.633Z,1014.44
2018-05-23T06:04:21.592Z,1014.44
2018-05-23T06:05:21.657Z,1014.45
2018-05-23T06:06:21.785Z,1014.49
2018-05-23T06:07:21.784Z,1014.49
2018-05-23T06:08:21.849Z,1014.51
2018-05-23T06:09:21.928Z,1014.47
2018-05-23T06:10:22.056Z,1014.46
2018-05-23T06:11:22.160Z,1014.48
2018-05-23T06:12:22.120Z,1014.46
2018-05-23T06:13:22.180Z,1014.51
2018-05-23T06:14:22.333Z,1014.55
2018-05-23T06:15:22.313Z,1014.57
2018-05-23T06:16:22.409Z,1014.56
2018-05-23T06:17:22.446Z,1014.53
2018-05-23T06:18:22.509Z,1014.55
2018-05-23T06:19:22.585Z,1014.58
2018-05-23T06:20:22.723Z,1014.58
2018-05-23T06:21:22.745Z,1014.54
2018-05-23T06:22:22.839Z,1014.58
2018-05-23T06:23:22.848Z,1014.60
2018-05-23T06:24:22.918Z,1014.59
2018-05-23T06:25:23.046Z,1014.57
2018-05-23T06:26:23.078Z,1014.61
2018-05-23T06:27:23.112Z,1014.55
2018-05-23T06:28:23.174Z,1014.59
2018-05-23T06:29:23.353Z,1014.60
2018-05-23T06:30:23.330Z,1014.60
2018-05-23T06:31:23.374Z,1014.59
2018-05-23T06:32:23.442Z,1014.62
2018-05-23T06:33:23.506Z,1014.59
2018-05-23T06:34:23.582Z,1014.65
2018-05-23T06:35:24.358Z,1014.63
2018-05-23T06:36:23.714Z,1014.69
2018-05-23T06:37:23.774Z,1014.64
2018-05-23T06:38:23.842Z,1014.65
2018-05-23T06:39:23.918Z,1014.65
2018-05-23T06:40:23.982Z,1014.66
2018-05-23T06:41:24.038Z,1014.69
2018-05-23T06:42:24.109Z,1014.67
2018-05-23T06:43:24.833Z,1014.71
2018-05-23T06:44:24.255Z,1014.72
2018-05-23T06:45:24.551Z,1014.76
2018-05-23T06:46:24.493Z,1014.73
2018-05-23T06:47:24.443Z,1014.78
2018-05-23T06:48:24.506Z,1014.77
2018-05-23T06:49:24.586Z,1014.78
2018-05-23T06:50:24.647Z,1014.81
2018-05-23T06:51:24.714Z,1014.81
2018-05-23T06:52:25.419Z,1014.85
2018-05-23T06:53:24.875Z,1014.86
2018-05-23T06:54:24.915Z,1014.85
2018-05-23T06:55:24.983Z,1014.85
2018-05-23T06:56:25.920Z,1014.86
2018-05-23T06:57:25.731Z,1014.87
2018-05-23T06:58:25.179Z,1014.88
2018-05-23T06:59:25.351Z,1014.86
2018-05-23T07:00:25.311Z,1014.95
2018-05-23T07:01:25.379Z,1014.97
2018-05-23T07:02:25.447Z,1014.97
2018-05-23T07:03:25.512Z,1014.96
2018-05-23T07:04:25.588Z,1014.97
2018-05-23T07:05:25.655Z,1015.01
2018-05-23T07:06:26.304Z,1015.00
2018-05-23T07:07:25.783Z,1015.02
2018-05-23T07:08:25.851Z,1015.03
2018-05-23T07:09:25.923Z,1015.03
2018-05-23T07:10:25.992Z,1015.04
2018-05-23T07:11:26.052Z,1015.06
2018-05-23T07:12:26.119Z,1015.11
2018-05-23T07:13:26.187Z,1015.10
2018-05-23T07:14:27.084Z,1015.13
2018-05-23T07:15:26.488Z,1015.16
2018-05-23T07:16:26.388Z,1015.14
2018-05-23T07:17:26.455Z,1015.14
2018-05-23T07:18:26.524Z,1015.14
2018-05-23T07:19:26.595Z,1015.15
2018-05-23T07:20:26.668Z,1015.11
2018-05-23T07:21:26.732Z,1015.10
2018-05-23T07:22:27.184Z,1015.07
2018-05-23T07:23:27.352Z,1015.09
2018-05-23T07:24:26.936Z,1015.10
2018-05-23T07:25:27.004Z,1015.09
2018-05-23T07:26:27.077Z,1015.10
2018-05-23T07:27:27.136Z,1015.10
2018-05-23T07:28:27.204Z,1015.12
2018-05-23T07:29:27.268Z,1015.16
2018-05-23T07:30:27.840Z,1015.16
2018-05-23T07:31:27.737Z,1015.17
2018-05-23T07:32:27.477Z,1015.19
2018-05-23T07:33:27.541Z,1015.18
2018-05-23T07:34:27.618Z,1015.15
2018-05-23T07:35:27.680Z,1015.21
2018-05-23T07:36:28.348Z,1015.22
2018-05-23T07:37:27.824Z,1015.16
2018-05-23T07:38:27.888Z,1015.16
2018-05-23T07:39:27.952Z,1015.20
2018-05-23T07:40:28.265Z,1015.15
2018-05-23T07:41:28.123Z,1015.13
2018-05-23T07:42:28.157Z,1015.16
2018-05-23T07:43:28.230Z,1015.16
2018-05-23T07:44:28.293Z,1015.17
2018-05-23T07:45:28.361Z,1015.15
2018-05-23T07:46:28.438Z,1015.18
2018-05-23T07:47:28.505Z,1015.15
2018-05-23T07:48:28.569Z,1015.18
2018-05-23T07:49:28.637Z,1015.22
2018-05-23T07:50:28.705Z,1015.22
2018-05-23T07:51:28.784Z,1015.28
2018-05-23T07:52:29.418Z,1015.28
2018-05-23T07:53:28.909Z,1015.33
2018-05-23T07:54:28.982Z,1015.31
2018-05-23T07:55:29.237Z,1015.37
2018-05-23T07:56:29.486Z,1015.42
2018-05-23T07:57:29.186Z,1015.43
2018-05-23T07:58:29.253Z,1015.39
2018-05-23T07:59:29.326Z,1015.49
2018-05-23T08:00:29.841Z,1015.53
2018-05-23T08:01:29.725Z,1015.55
2018-05-23T08:02:29.538Z,1015.59
2018-05-23T08:03:29.602Z,1015.65
2018-05-23T08:04:29.918Z,1015.67
2018-05-23T08:05:29.850Z,1015.73
2018-05-23T08:06:29.818Z,1015.80
2018-05-23T08:07:29.890Z,1015.78
2018-05-23T08:08:29.952Z,1015.85
2018-05-23T08:09:30.022Z,1015.81
2018-05-23T08:10:30.534Z,1015.78
2018-05-23T08:11:30.483Z,1015.91
2018-05-23T08:12:30.344Z,1015.90
2018-05-23T08:13:30.679Z,1015.88
2018-05-23T08:14:30.383Z,1016.04
2018-05-23T08:15:30.450Z,1016.05
2018-05-23T08:16:30.522Z,1016.14
2018-05-23T08:17:30.599Z,1016.09
2018-05-23T08:18:30.670Z,1016.05
2018-05-23T08:19:30.738Z,1016.13
2018-05-23T08:20:30.810Z,1016.15
2018-05-23T08:21:31.206Z,1016.12
2018-05-23T08:22:30.966Z,1016.12
2018-05-23T08:23:31.039Z,1016.12
2018-05-23T08:24:31.427Z,1016.15
2018-05-23T08:25:31.178Z,1016.11
2018-05-23T08:26:31.378Z,1016.05
2018-05-23T08:27:31.465Z,1016.15
2018-05-23T08:28:31.471Z,1016.45
2018-05-23T08:29:31.479Z,1016.62
2018-05-23T08:30:31.550Z,1016.60
2018-05-23T08:31:31.627Z,1016.56
2018-05-23T08:32:32.067Z,1016.48
2018-05-23T08:33:31.782Z,1016.32
2018-05-23T08:34:31.855Z,1016.32
2018-05-23T08:35:31.931Z,1016.29
2018-05-23T08:36:32.191Z,1016.25
2018-05-23T08:37:32.523Z,1016.25
2018-05-23T08:38:32.159Z,1016.27
2018-05-23T08:39:32.235Z,1016.26
2018-05-23T08:40:32.779Z,1016.27
2018-05-23T08:41:32.783Z,1016.21
2018-05-23T08:42:33.287Z,1016.07
2018-05-23T08:43:32.543Z,1016.13
2018-05-23T08:44:32.624Z,1016.17
2018-05-23T08:45:32.695Z,1016.33
2018-05-23T08:46:32.772Z,1016.12
2018-05-23T08:47:32.859Z,1016.04
2018-05-23T08:48:32.931Z,1015.98
2018-05-23T08:49:33.532Z,1015.93
2018-05-23T08:50:33.076Z,1015.94
2018-05-23T08:51:33.151Z,1015.99
2018-05-23T08:52:33.228Z,1015.98
2018-05-23T08:53:33.327Z,1016.03
2018-05-23T08:54:33.624Z,1015.98
2018-05-23T08:55:33.466Z,1016.08
2018-05-23T08:56:33.532Z,1015.89
2018-05-23T08:57:33.614Z,1015.79
2018-05-23T08:58:34.268Z,1015.78
2018-05-23T08:59:33.767Z,1015.77
2018-05-23T09:00:33.836Z,1015.80
2018-05-23T09:01:34.416Z,1015.84
2018-05-23T09:02:34.308Z,1015.81
2018-05-23T09:03:34.072Z,1015.97
2018-05-23T09:04:34.140Z,1016.02
2018-05-23T09:05:34.208Z,1016.09
2018-05-23T09:06:34.364Z,1016.03
2018-05-23T09:07:34.673Z,1016.10
2018-05-23T09:08:34.440Z,1016.09
2018-05-23T09:09:34.717Z,1016.05
2018-05-23T09:10:34.796Z,1016.04
2018-05-23T09:11:34.660Z,1016.03
2018-05-23T09:12:34.846Z,1016.05
2018-05-23T09:13:34.820Z,1015.99
2018-05-23T09:14:34.896Z,1015.93
2018-05-23T09:15:35.268Z,1016.06
2018-05-23T09:16:35.048Z,1016.08
2018-05-23T09:17:35.118Z,1016.06
2018-05-23T09:18:35.354Z,1016.08
2018-05-23T09:19:35.484Z,1016.07
2018-05-23T09:20:35.344Z,1016.10
2018-05-23T09:21:35.420Z,1016.08
2018-05-23T09:22:35.497Z,1016.08
2018-05-23T09:23:35.581Z,1016.05
2018-05-23T09:24:35.661Z,1016.06
2018-05-23T09:25:35.993Z,1016.06
2018-05-23T09:26:35.801Z,1016.05
2018-05-23T09:27:35.876Z,1016.15
2018-05-23T09:28:35.961Z,1016.12
2018-05-23T09:29:36.038Z,1016.14
2018-05-23T09:30:36.240Z,1016.07
2018-05-23T09:31:36.181Z,1016.06
2018-05-23T09:32:36.257Z,1016.06
2018-05-23T09:33:36.365Z,1016.06
2018-05-23T09:34:36.409Z,1016.07
2018-05-23T09:35:36.485Z,1016.05
2018-05-23T09:36:36.561Z,1016.11
2018-05-23T09:37:36.637Z,1016.10
2018-05-23T09:38:36.717Z,1016.14
2018-05-23T09:39:36.817Z,1016.15
2018-05-23T09:40:36.861Z,1016.17
2018-05-23T09:41:36.937Z,1016.19
2018-05-23T09:42:37.257Z,1016.13
2018-05-23T09:43:37.425Z,1016.11
2018-05-23T09:44:37.166Z,1016.10
2018-05-23T09:45:37.237Z,1016.10
2018-05-23T09:46:37.313Z,1016.08
2018-05-23T09:47:37.506Z,1016.12
2018-05-23T09:48:37.470Z,1016.06
2018-05-23T09:49:37.770Z,1016.09
2018-05-23T09:50:37.610Z,1016.08
2018-05-23T09:51:37.685Z,1016.11
2018-05-23T09:52:37.762Z,1016.14
2018-05-23T09:53:37.842Z,1016.11
2018-05-23T09:54:37.914Z,1016.14
2018-05-23T09:55:37.982Z,1016.15
2018-05-23T09:56:38.145Z,1016.16
2018-05-23T09:57:38.130Z,1016.19
2018-05-23T09:58:38.371Z,1016.16
2018-05-23T09:59:38.278Z,1016.21
2018-05-23T10:00:38.354Z,1016.23
2018-05-23T10:01:38.915Z,1016.26
2018-05-23T10:02:38.501Z,1016.25
2018-05-23T10:03:38.582Z,1016.24
2018-05-23T10:04:38.654Z,1016.24
2018-05-23T10:05:38.722Z,1016.25
2018-05-23T10:06:38.797Z,1016.24
2018-05-23T10:07:38.870Z,1016.25
2018-05-23T10:08:38.986Z,1016.26
2018-05-23T10:09:39.026Z,1016.25
2018-05-23T10:10:39.094Z,1016.28
2018-05-23T10:11:39.374Z,1016.30
2018-05-23T10:12:39.243Z,1016.32
2018-05-23T10:13:39.499Z,1016.31
2018-05-23T10:14:39.639Z,1016.30
2018-05-23T10:15:39.471Z,1016.28
2018-05-23T10:16:39.544Z,1016.33
2018-05-23T10:17:39.615Z,1016.32
2018-05-23T10:18:39.695Z,1016.31
2018-05-23T10:19:39.771Z,1016.36
2018-05-23T10:20:39.839Z,1016.32
2018-05-23T10:21:39.951Z,1016.37
2018-05-23T10:22:40.435Z,1016.29
2018-05-23T10:23:40.067Z,1016.35
2018-05-23T10:24:40.503Z,1016.39
2018-05-23T10:25:40.268Z,1016.45
2018-05-23T10:26:40.288Z,1016.34
2018-05-23T10:27:40.632Z,1016.40
2018-05-23T10:28:40.439Z,1016.40
2018-05-23T10:29:40.511Z,1016.39
2018-05-23T10:30:40.580Z,1016.41
2018-05-23T10:31:42.481Z,1016.41
2018-05-23T10:32:40.732Z,1016.42
2018-05-23T10:33:42.496Z,1016.36
2018-05-23T10:34:40.911Z,1016.34
2018-05-23T10:35:40.960Z,1016.36
2018-05-23T10:36:41.024Z,1016.37
2018-05-23T10:37:41.100Z,1016.35
2018-05-23T10:38:41.191Z,1016.34
2018-05-23T10:39:41.560Z,1016.42
2018-05-23T10:40:41.326Z,1016.40
2018-05-23T10:41:41.392Z,1016.38
2018-05-23T10:42:41.548Z,1016.34
2018-05-23T10:43:41.549Z,1016.41
2018-05-23T10:44:42.022Z,1016.41
2018-05-23T10:45:41.684Z,1016.36
2018-05-23T10:46:41.757Z,1016.41
2018-05-23T10:47:41.828Z,1016.48
2018-05-23T10:48:41.908Z,1016.45
2018-05-23T10:49:41.989Z,1016.45
2018-05-23T10:50:42.045Z,1016.47
2018-05-23T10:51:42.524Z,1016.51
2018-05-23T10:52:42.345Z,1016.49
2018-05-23T10:53:42.261Z,1016.50
2018-05-23T10:54:42.681Z,1016.60
2018-05-23T10:55:42.550Z,1016.59
2018-05-23T10:56:42.473Z,1016.65
2018-05-23T10:57:42.558Z,1016.66
2018-05-23T10:58:42.761Z,1016.62
2018-05-23T10:59:42.897Z,1016.66
2018-05-23T11:00:42.885Z,1016.66
2018-05-23T11:01:42.829Z,1016.73
2018-05-23T11:02:42.905Z,1016.68
2018-05-23T11:03:42.973Z,1016.71
2018-05-23T11:04:43.053Z,1016.77
2018-05-23T11:05:43.141Z,1016.70
2018-05-23T11:06:43.210Z,1016.69
2018-05-23T11:07:43.254Z,1016.70
2018-05-23T11:08:43.326Z,1016.71
2018-05-23T11:09:43.403Z,1016.67
2018-05-23T11:10:43.466Z,1016.62
2018-05-23T11:11:43.710Z,1016.64
2018-05-23T11:12:43.609Z,1016.67
2018-05-23T11:13:44.074Z,1016.65
2018-05-23T11:14:44.102Z,1016.70
2018-05-23T11:15:43.846Z,1016.67
2018-05-23T11:16:43.894Z,1016.65
2018-05-23T11:17:43.950Z,1016.68
2018-05-23T11:18:44.538Z,1016.64
2018-05-23T11:19:44.369Z,1016.64
2018-05-23T11:20:44.174Z,1016.67
2018-05-23T11:21:44.230Z,1016.70
2018-05-23T11:22:44.310Z,1016.70
2018-05-23T11:23:44.898Z,1016.70
2018-05-23T11:24:44.447Z,1016.70
2018-05-23T11:25:44.530Z,1016.67
2018-05-23T11:26:44.587Z,1016.74
2018-05-23T11:27:44.656Z,1016.68
2018-05-23T11:28:44.718Z,1016.69
2018-05-23T11:29:44.878Z,1016.70
2018-05-23T11:30:44.878Z,1016.68
2018-05-23T11:31:45.666Z,1016.69
2018-05-23T11:32:44.999Z,1016.71
2018-05-23T11:33:45.069Z,1016.74
2018-05-23T11:34:45.142Z,1016.73
2018-05-23T11:35:45.975Z,1016.74
2018-05-23T11:36:45.270Z,1016.71
2018-05-23T11:37:45.347Z,1016.69
2018-05-23T11:38:45.407Z,1016.70
2018-05-23T11:39:45.483Z,1016.72
2018-05-23T11:40:45.558Z,1016.74
2018-05-23T11:41:46.283Z,1016.76
2018-05-23T11:42:45.699Z,1016.75
2018-05-23T11:43:45.762Z,1016.77
2018-05-23T11:44:45.831Z,1016.75
2018-05-23T11:45:45.907Z,1016.74
2018-05-23T11:46:45.975Z,1016.78
2018-05-23T11:47:46.039Z,1016.73
2018-05-23T11:48:46.668Z,1016.78
2018-05-23T11:49:46.179Z,1016.77
2018-05-23T11:50:46.359Z,1016.75
2018-05-23T11:51:46.323Z,1016.78
2018-05-23T11:52:46.792Z,1016.77
2018-05-23T11:53:46.783Z,1016.74
2018-05-23T11:54:46.959Z,1016.74
2018-05-23T11:55:46.608Z,1016.70
2018-05-23T11:56:46.671Z,1016.68
2018-05-23T11:57:46.735Z,1016.71
2018-05-23T11:58:46.814Z,1016.71
2018-05-23T11:59:46.875Z,1016.71
2018-05-23T12:00:46.952Z,1016.68
2018-05-23T12:01:47.102Z,1016.65
2018-05-23T12:02:47.087Z,1016.66
2018-05-23T12:03:47.155Z,1016.65
2018-05-23T12:04:47.219Z,1016.64
2018-05-23T12:05:47.479Z,1016.62
2018-05-23T12:06:47.392Z,1016.61